Summit, New Jersey
Current Conditions -  °F | °C
As of 9:45 AM on Thursday 18 Dec 2014 (Local Time) from KMMU Reporting Station
Broken Clouds Broken Clouds  
Wind Chill: 32°   Ceiling: 4000
Heat Index: 39°   Visibility: 10mi
Dew Point: 23°   Wind: 12mph
Humidity: 52%   Direction: 280°W
Pressure: 30.02"   Gusts: 18mph
Location:  40.72°N, 74.36°W
Report Text: KMMU 181445Z 28010G16KT 10SM BKN040 04/M05 A3002
Loading
Personal Weather Stations






























Interactive Weather Map New forecast layout! Learn more

10-Day Weather Forecast

Advertisements
Track Severe Weather on mobile